sensor_id;sensor_type;location;lat;lon;timestamp;P1;durP1;ratioP1;P2;durP2;ratioP2
9422;SDS011;65863;49.506;10.400;2023-03-01T00:00:47;18.03;;;11.73;;
9422;SDS011;65863;49.506;10.400;2023-03-01T00:03:31;16.37;;;11.97;;
9422;SDS011;65863;49.506;10.400;2023-03-01T00:06:16;15.70;;;11.93;;
9422;SDS011;65863;49.506;10.400;2023-03-01T00:09:00;20.50;;;12.13;;
9422;SDS011;65863;49.506;10.400;2023-03-01T00:11:44;17.57;;;12.20;;
9422;SDS011;65863;49.506;10.400;2023-03-01T00:14:29;14.70;;;11.33;;
9422;SDS011;65863;49.506;10.400;2023-03-01T00:17:13;16.23;;;11.83;;
9422;SDS011;65863;49.506;10.400;2023-03-01T00:19:57;16.17;;;12.33;;
9422;SDS011;65863;49.506;10.400;2023-03-01T00:22:41;17.20;;;12.87;;
9422;SDS011;65863;49.506;10.400;2023-03-01T00:25:24;19.43;;;11.97;;
9422;SDS011;65863;49.506;10.400;2023-03-01T00:28:08;18.13;;;12.43;;
9422;SDS011;65863;49.506;10.400;2023-03-01T00:30:52;19.77;;;12.33;;
9422;SDS011;65863;49.506;10.400;2023-03-01T00:33:37;17.40;;;12.27;;
9422;SDS011;65863;49.506;10.400;2023-03-01T00:36:21;17.87;;;12.00;;
9422;SDS011;65863;49.506;10.400;2023-03-01T00:39:07;20.00;;;12.97;;
9422;SDS011;65863;49.506;10.400;2023-03-01T00:41:54;18.60;;;11.53;;
9422;SDS011;65863;49.506;10.400;2023-03-01T00:44:40;18.53;;;12.87;;
9422;SDS011;65863;49.506;10.400;2023-03-01T00:47:24;18.40;;;12.07;;
9422;SDS011;65863;49.506;10.400;2023-03-01T00:50:08;15.87;;;11.73;;
9422;SDS011;65863;49.506;10.400;2023-03-01T00:52:55;21.00;;;12.63;;
9422;SDS011;65863;49.506;10.400;2023-03-01T00:55:40;22.73;;;12.00;;
9422;SDS011;65863;49.506;10.400;2023-03-01T00:58:24;18.47;;;12.33;;
9422;SDS011;65863;49.506;10.400;2023-03-01T01:01:17;18.63;;;12.43;;
9422;SDS011;65863;49.506;10.400;2023-03-01T01:04:11;18.93;;;12.47;;
9422;SDS011;65863;49.506;10.400;2023-03-01T01:06:56;19.90;;;12.57;;
9422;SDS011;65863;49.506;10.400;2023-03-01T01:09:40;20.17;;;12.37;;
9422;SDS011;65863;49.506;10.400;2023-03-01T01:12:24;18.13;;;11.80;;
9422;SDS011;65863;49.506;10.400;2023-03-01T01:15:08;18.37;;;12.43;;
9422;SDS011;65863;49.506;10.400;2023-03-01T01:17:52;20.97;;;12.47;;
9422;SDS011;65863;49.506;10.400;2023-03-01T01:20:36;16.90;;;11.57;;
9422;SDS011;65863;49.506;10.400;2023-03-01T01:23:21;17.87;;;11.57;;
9422;SDS011;65863;49.506;10.400;2023-03-01T01:26:09;16.43;;;12.30;;
9422;SDS011;65863;49.506;10.400;2023-03-01T01:28:55;18.87;;;12.27;;
9422;SDS011;65863;49.506;10.400;2023-03-01T01:31:41;18.07;;;11.33;;
9422;SDS011;65863;49.506;10.400;2023-03-01T01:34:26;18.60;;;12.50;;
9422;SDS011;65863;49.506;10.400;2023-03-01T01:37:10;17.40;;;12.60;;
9422;SDS011;65863;49.506;10.400;2023-03-01T01:39:54;16.53;;;11.50;;
9422;SDS011;65863;49.506;10.400;2023-03-01T01:42:38;16.43;;;11.30;;
9422;SDS011;65863;49.506;10.400;2023-03-01T01:45:32;18.07;;;11.90;;
9422;SDS011;65863;49.506;10.400;2023-03-01T01:48:20;17.30;;;11.53;;
9422;SDS011;65863;49.506;10.400;2023-03-01T01:51:09;18.23;;;12.73;;
9422;SDS011;65863;49.506;10.400;2023-03-01T01:53:57;18.27;;;12.20;;
9422;SDS011;65863;49.506;10.400;2023-03-01T01:56:48;22.10;;;12.97;;
9422;SDS011;65863;49.506;10.400;2023-03-01T01:59:38;22.53;;;12.40;;
9422;SDS011;65863;49.506;10.400;2023-03-01T02:02:24;20.13;;;12.83;;
9422;SDS011;65863;49.506;10.400;2023-03-01T02:05:11;18.37;;;11.83;;
9422;SDS011;65863;49.506;10.400;2023-03-01T02:08:12;16.27;;;11.37;;
9422;SDS011;65863;49.506;10.400;2023-03-01T02:10:59;16.33;;;11.93;;
9422;SDS011;65863;49.506;10.400;2023-03-01T02:13:44;18.13;;;11.83;;
9422;SDS011;65863;49.506;10.400;2023-03-01T02:16:28;15.33;;;11.10;;
9422;SDS011;65863;49.506;10.400;2023-03-01T02:19:16;14.73;;;10.60;;
9422;SDS011;65863;49.506;10.400;2023-03-01T02:22:13;17.90;;;11.23;;
9422;SDS011;65863;49.506;10.400;2023-03-01T02:30:59;17.00;;;12.07;;
9422;SDS011;65863;49.506;10.400;2023-03-01T02:34:02;19.13;;;12.03;;
9422;SDS011;65863;49.506;10.400;2023-03-01T02:36:53;18.00;;;12.10;;
9422;SDS011;65863;49.506;10.400;2023-03-01T02:39:41;17.77;;;12.07;;
9422;SDS011;65863;49.506;10.400;2023-03-01T02:42:31;18.47;;;11.90;;
9422;SDS011;65863;49.506;10.400;2023-03-01T02:45:20;17.73;;;12.07;;
9422;SDS011;65863;49.506;10.400;2023-03-01T02:48:04;16.83;;;12.30;;
9422;SDS011;65863;49.506;10.400;2023-03-01T02:53:56;16.90;;;11.57;;
9422;SDS011;65863;49.506;10.400;2023-03-01T02:56:51;17.80;;;12.37;;
9422;SDS011;65863;49.506;10.400;2023-03-01T02:59:38;18.57;;;12.00;;
9422;SDS011;65863;49.506;10.400;2023-03-01T03:02:26;18.10;;;11.97;;
9422;SDS011;65863;49.506;10.400;2023-03-01T03:05:33;19.33;;;12.50;;
9422;SDS011;65863;49.506;10.400;2023-03-01T03:08:18;17.13;;;11.67;;
9422;SDS011;65863;49.506;10.400;2023-03-01T03:11:07;19.57;;;12.83;;
9422;SDS011;65863;49.506;10.400;2023-03-01T03:13:52;19.60;;;12.83;;
9422;SDS011;65863;49.506;10.400;2023-03-01T03:16:36;18.40;;;12.03;;
9422;SDS011;65863;49.506;10.400;2023-03-01T03:19:20;21.10;;;13.03;;
9422;SDS011;65863;49.506;10.400;2023-03-01T03:22:04;19.70;;;12.80;;
9422;SDS011;65863;49.506;10.400;2023-03-01T03:24:48;18.87;;;12.90;;
9422;SDS011;65863;49.506;10.400;2023-03-01T03:27:32;22.50;;;13.77;;
9422;SDS011;65863;49.506;10.400;2023-03-01T03:30:17;22.17;;;13.43;;
9422;SDS011;65863;49.506;10.400;2023-03-01T03:33:02;23.27;;;13.00;;
9422;SDS011;65863;49.506;10.400;2023-03-01T03:35:47;18.53;;;12.73;;
9422;SDS011;65863;49.506;10.400;2023-03-01T03:38:33;17.07;;;12.50;;
9422;SDS011;65863;49.506;10.400;2023-03-01T03:41:17;19.23;;;12.90;;
9422;SDS011;65863;49.506;10.400;2023-03-01T03:44:01;19.90;;;12.97;;
9422;SDS011;65863;49.506;10.400;2023-03-01T03:46:45;20.47;;;12.77;;
9422;SDS011;65863;49.506;10.400;2023-03-01T03:49:29;21.20;;;13.27;;
9422;SDS011;65863;49.506;10.400;2023-03-01T03:52:13;20.63;;;13.20;;
9422;SDS011;65863;49.506;10.400;2023-03-01T03:54:57;22.93;;;14.27;;
9422;SDS011;65863;49.506;10.400;2023-03-01T03:57:41;19.60;;;13.43;;
9422;SDS011;65863;49.506;10.400;2023-03-01T04:00:25;22.53;;;14.00;;
9422;SDS011;65863;49.506;10.400;2023-03-01T04:03:10;21.90;;;13.77;;
9422;SDS011;65863;49.506;10.400;2023-03-01T04:05:59;22.10;;;14.03;;
9422;SDS011;65863;49.506;10.400;2023-03-01T04:08:44;19.40;;;13.60;;
9422;SDS011;65863;49.506;10.400;2023-03-01T04:11:28;19.27;;;13.07;;
9422;SDS011;65863;49.506;10.400;2023-03-01T04:14:12;20.60;;;13.33;;
9422;SDS011;65863;49.506;10.400;2023-03-01T04:16:56;19.60;;;13.53;;
9422;SDS011;65863;49.506;10.400;2023-03-01T04:19:41;23.97;;;13.60;;
9422;SDS011;65863;49.506;10.400;2023-03-01T04:22:27;22.27;;;13.27;;
9422;SDS011;65863;49.506;10.400;2023-03-01T04:25:13;20.50;;;13.63;;
9422;SDS011;65863;49.506;10.400;2023-03-01T04:27:57;19.10;;;13.17;;
9422;SDS011;65863;49.506;10.400;2023-03-01T04:30:41;17.93;;;13.10;;
9422;SDS011;65863;49.506;10.400;2023-03-01T04:33:25;26.50;;;14.30;;
9422;SDS011;65863;49.506;10.400;2023-03-01T04:36:10;19.83;;;13.53;;
9422;SDS011;65863;49.506;10.400;2023-03-01T04:38:56;23.77;;;14.50;;
9422;SDS011;65863;49.506;10.400;2023-03-01T04:41:40;22.27;;;13.80;;
9422;SDS011;65863;49.506;10.400;2023-03-01T04:44:24;18.40;;;12.90;;
9422;SDS011;65863;49.506;10.400;2023-03-01T04:47:08;23.73;;;14.33;;
9422;SDS011;65863;49.506;10.400;2023-03-01T04:49:53;22.10;;;13.33;;
9422;SDS011;65863;49.506;10.400;2023-03-01T04:52:37;18.87;;;12.77;;
9422;SDS011;65863;49.506;10.400;2023-03-01T04:55:21;21.37;;;13.83;;
9422;SDS011;65863;49.506;10.400;2023-03-01T04:58:05;19.67;;;13.70;;
9422;SDS011;65863;49.506;10.400;2023-03-01T05:00:49;19.40;;;13.53;;
9422;SDS011;65863;49.506;10.400;2023-03-01T05:03:33;19.37;;;13.33;;
9422;SDS011;65863;49.506;10.400;2023-03-01T05:06:18;20.03;;;13.37;;
9422;SDS011;65863;49.506;10.400;2023-03-01T05:09:03;19.50;;;12.73;;
9422;SDS011;65863;49.506;10.400;2023-03-01T05:11:47;21.20;;;13.17;;
9422;SDS011;65863;49.506;10.400;2023-03-01T05:14:31;20.80;;;13.80;;
9422;SDS011;65863;49.506;10.400;2023-03-01T05:17:15;18.90;;;13.30;;
9422;SDS011;65863;49.506;10.400;2023-03-01T05:19:59;18.10;;;12.13;;
9422;SDS011;65863;49.506;10.400;2023-03-01T05:22:44;22.47;;;12.60;;
9422;SDS011;65863;49.506;10.400;2023-03-01T05:25:28;26.73;;;14.40;;
9422;SDS011;65863;49.506;10.400;2023-03-01T05:28:16;18.57;;;12.60;;
9422;SDS011;65863;49.506;10.400;2023-03-01T05:31:00;23.63;;;13.70;;
9422;SDS011;65863;49.506;10.400;2023-03-01T05:33:44;27.70;;;15.20;;
9422;SDS011;65863;49.506;10.400;2023-03-01T05:36:29;22.20;;;14.30;;
9422;SDS011;65863;49.506;10.400;2023-03-01T05:39:13;20.00;;;13.40;;
9422;SDS011;65863;49.506;10.400;2023-03-01T05:41:57;24.42;;;16.77;;
9422;SDS011;65863;49.506;10.400;2023-03-01T05:44:42;21.37;;;13.97;;
9422;SDS011;65863;49.506;10.400;2023-03-01T05:47:26;21.47;;;13.90;;
9422;SDS011;65863;49.506;10.400;2023-03-01T05:50:11;19.83;;;13.57;;
9422;SDS011;65863;49.506;10.400;2023-03-01T05:53:04;25.53;;;13.40;;
9422;SDS011;65863;49.506;10.400;2023-03-01T05:55:51;19.70;;;13.50;;
9422;SDS011;65863;49.506;10.400;2023-03-01T05:58:35;19.07;;;13.70;;
9422;SDS011;65863;49.506;10.400;2023-03-01T06:01:22;19.67;;;13.57;;
9422;SDS011;65863;49.506;10.400;2023-03-01T06:04:06;23.27;;;13.77;;
9422;SDS011;65863;49.506;10.400;2023-03-01T06:06:50;21.83;;;13.37;;
9422;SDS011;65863;49.506;10.400;2023-03-01T06:09:34;20.17;;;13.13;;
9422;SDS011;65863;49.506;10.400;2023-03-01T06:12:18;21.23;;;13.73;;
9422;SDS011;65863;49.506;10.400;2023-03-01T06:15:02;22.37;;;13.87;;
9422;SDS011;65863;49.506;10.400;2023-03-01T06:17:48;26.57;;;15.97;;
9422;SDS011;65863;49.506;10.400;2023-03-01T06:20:32;24.10;;;15.83;;
9422;SDS011;65863;49.506;10.400;2023-03-01T06:23:16;24.00;;;15.00;;
9422;SDS011;65863;49.506;10.400;2023-03-01T06:26:00;21.37;;;14.97;;
9422;SDS011;65863;49.506;10.400;2023-03-01T06:28:44;21.17;;;14.20;;
9422;SDS011;65863;49.506;10.400;2023-03-01T06:31:29;19.50;;;13.73;;
9422;SDS011;65863;49.506;10.400;2023-03-01T06:34:13;23.70;;;13.93;;
9422;SDS011;65863;49.506;10.400;2023-03-01T06:36:58;22.00;;;14.20;;
9422;SDS011;65863;49.506;10.400;2023-03-01T06:39:41;23.07;;;13.60;;
9422;SDS011;65863;49.506;10.400;2023-03-01T06:42:25;21.40;;;14.63;;
9422;SDS011;65863;49.506;10.400;2023-03-01T06:45:09;22.57;;;14.13;;
9422;SDS011;65863;49.506;10.400;2023-03-01T06:48:01;22.10;;;14.77;;
9422;SDS011;65863;49.506;10.400;2023-03-01T06:50:46;20.63;;;14.17;;
9422;SDS011;65863;49.506;10.400;2023-03-01T06:53:30;21.67;;;13.97;;
9422;SDS011;65863;49.506;10.400;2023-03-01T06:56:14;20.83;;;14.53;;
9422;SDS011;65863;49.506;10.400;2023-03-01T06:58:58;24.80;;;14.80;;
9422;SDS011;65863;49.506;10.400;2023-03-01T07:01:42;24.23;;;13.93;;
9422;SDS011;65863;49.506;10.400;2023-03-01T07:04:27;21.03;;;13.93;;
9422;SDS011;65863;49.506;10.400;2023-03-01T07:07:12;20.33;;;14.10;;
9422;SDS011;65863;49.506;10.400;2023-03-01T07:09:56;21.53;;;14.43;;
9422;SDS011;65863;49.506;10.400;2023-03-01T07:12:40;23.00;;;14.50;;
9422;SDS011;65863;49.506;10.400;2023-03-01T07:15:25;23.13;;;14.97;;
9422;SDS011;65863;49.506;10.400;2023-03-01T07:18:10;24.23;;;15.40;;
9422;SDS011;65863;49.506;10.400;2023-03-01T07:20:54;22.47;;;15.07;;
9422;SDS011;65863;49.506;10.400;2023-03-01T07:23:38;24.30;;;15.10;;
9422;SDS011;65863;49.506;10.400;2023-03-01T07:26:24;23.27;;;14.50;;
9422;SDS011;65863;49.506;10.400;2023-03-01T07:29:09;21.97;;;14.03;;
9422;SDS011;65863;49.506;10.400;2023-03-01T07:31:54;24.77;;;13.67;;
9422;SDS011;65863;49.506;10.400;2023-03-01T07:34:38;20.40;;;14.27;;
9422;SDS011;65863;49.506;10.400;2023-03-01T07:37:22;25.07;;;14.23;;
9422;SDS011;65863;49.506;10.400;2023-03-01T07:40:06;25.90;;;15.33;;
9422;SDS011;65863;49.506;10.400;2023-03-01T07:42:55;23.40;;;15.10;;
9422;SDS011;65863;49.506;10.400;2023-03-01T07:45:40;21.47;;;14.20;;
9422;SDS011;65863;49.506;10.400;2023-03-01T07:48:23;19.50;;;13.90;;
9422;SDS011;65863;49.506;10.400;2023-03-01T07:51:07;20.03;;;13.40;;
9422;SDS011;65863;49.506;10.400;2023-03-01T07:53:51;22.07;;;14.67;;
9422;SDS011;65863;49.506;10.400;2023-03-01T07:56:35;18.73;;;13.17;;
9422;SDS011;65863;49.506;10.400;2023-03-01T07:59:19;19.13;;;13.77;;
9422;SDS011;65863;49.506;10.400;2023-03-01T08:02:03;18.77;;;12.87;;
9422;SDS011;65863;49.506;10.400;2023-03-01T08:04:47;16.43;;;11.93;;
9422;SDS011;65863;49.506;10.400;2023-03-01T08:07:32;19.73;;;13.73;;
9422;SDS011;65863;49.506;10.400;2023-03-01T08:10:17;21.47;;;13.83;;
9422;SDS011;65863;49.506;10.400;2023-03-01T08:13:01;18.93;;;13.13;;
9422;SDS011;65863;49.506;10.400;2023-03-01T08:15:46;17.37;;;13.03;;
9422;SDS011;65863;49.506;10.400;2023-03-01T08:18:30;18.83;;;13.13;;
9422;SDS011;65863;49.506;10.400;2023-03-01T08:21:15;20.40;;;14.20;;
9422;SDS011;65863;49.506;10.400;2023-03-01T08:24:01;18.37;;;13.23;;
9422;SDS011;65863;49.506;10.400;2023-03-01T08:26:46;17.23;;;12.63;;
9422;SDS011;65863;49.506;10.400;2023-03-01T08:29:30;18.73;;;12.87;;
9422;SDS011;65863;49.506;10.400;2023-03-01T08:32:15;17.43;;;12.37;;
9422;SDS011;65863;49.506;10.400;2023-03-01T08:34:59;17.27;;;12.53;;
9422;SDS011;65863;49.506;10.400;2023-03-01T08:37:43;16.40;;;12.30;;
9422;SDS011;65863;49.506;10.400;2023-03-01T08:40:26;18.50;;;12.30;;
9422;SDS011;65863;49.506;10.400;2023-03-01T08:43:10;19.20;;;12.70;;
9422;SDS011;65863;49.506;10.400;2023-03-01T08:45:54;22.87;;;13.17;;
9422;SDS011;65863;49.506;10.400;2023-03-01T08:48:38;19.57;;;13.73;;
9422;SDS011;65863;49.506;10.400;2023-03-01T08:51:23;18.53;;;12.87;;
9422;SDS011;65863;49.506;10.400;2023-03-01T08:54:12;19.43;;;12.33;;
9422;SDS011;65863;49.506;10.400;2023-03-01T08:57:00;18.37;;;12.40;;
9422;SDS011;65863;49.506;10.400;2023-03-01T08:59:45;18.17;;;12.97;;
9422;SDS011;65863;49.506;10.400;2023-03-01T09:02:29;17.73;;;12.73;;
9422;SDS011;65863;49.506;10.400;2023-03-01T09:05:13;16.07;;;11.80;;
9422;SDS011;65863;49.506;10.400;2023-03-01T09:07:57;21.00;;;13.37;;
9422;SDS011;65863;49.506;10.400;2023-03-01T09:10:41;19.37;;;12.10;;
9422;SDS011;65863;49.506;10.400;2023-03-01T09:13:25;20.97;;;12.47;;
9422;SDS011;65863;49.506;10.400;2023-03-01T09:16:15;18.97;;;13.17;;
9422;SDS011;65863;49.506;10.400;2023-03-01T09:19:01;20.10;;;12.80;;
9422;SDS011;65863;49.506;10.400;2023-03-01T09:21:47;17.87;;;12.57;;
9422;SDS011;65863;49.506;10.400;2023-03-01T09:24:36;17.50;;;12.80;;
9422;SDS011;65863;49.506;10.400;2023-03-01T09:27:20;16.03;;;11.90;;
9422;SDS011;65863;49.506;10.400;2023-03-01T09:30:05;17.13;;;12.27;;
9422;SDS011;65863;49.506;10.400;2023-03-01T09:32:49;11.80;;;9.03;;
9422;SDS011;65863;49.506;10.400;2023-03-01T09:35:33;16.10;;;10.50;;
9422;SDS011;65863;49.506;10.400;2023-03-01T09:38:17;17.90;;;12.13;;
9422;SDS011;65863;49.506;10.400;2023-03-01T09:41:01;16.37;;;12.00;;
9422;SDS011;65863;49.506;10.400;2023-03-01T09:43:52;18.97;;;11.80;;
9422;SDS011;65863;49.506;10.400;2023-03-01T09:46:44;15.00;;;12.00;;
9422;SDS011;65863;49.506;10.400;2023-03-01T09:49:30;16.83;;;11.10;;
9422;SDS011;65863;49.506;10.400;2023-03-01T09:52:23;14.47;;;11.40;;
9422;SDS011;65863;49.506;10.400;2023-03-01T09:55:14;17.93;;;12.17;;
9422;SDS011;65863;49.506;10.400;2023-03-01T09:58:26;16.70;;;12.13;;
9422;SDS011;65863;49.506;10.400;2023-03-01T10:04:48;19.50;;;11.57;;
9422;SDS011;65863;49.506;10.400;2023-03-01T10:07:45;15.20;;;10.67;;
9422;SDS011;65863;49.506;10.400;2023-03-01T10:10:40;15.73;;;11.63;;
9422;SDS011;65863;49.506;10.400;2023-03-01T10:13:34;18.07;;;11.87;;
9422;SDS011;65863;49.506;10.400;2023-03-01T10:19:38;18.83;;;11.40;;
9422;SDS011;65863;49.506;10.400;2023-03-01T10:22:26;14.77;;;11.50;;
9422;SDS011;65863;49.506;10.400;2023-03-01T10:25:13;16.80;;;11.70;;
9422;SDS011;65863;49.506;10.400;2023-03-01T10:28:02;18.10;;;11.03;;
9422;SDS011;65863;49.506;10.400;2023-03-01T10:31:13;16.20;;;11.30;;
9422;SDS011;65863;49.506;10.400;2023-03-01T10:34:02;16.80;;;12.57;;
9422;SDS011;65863;49.506;10.400;2023-03-01T10:36:51;15.50;;;11.03;;
9422;SDS011;65863;49.506;10.400;2023-03-01T10:39:55;17.63;;;12.07;;
9422;SDS011;65863;49.506;10.400;2023-03-01T10:42:46;14.00;;;11.33;;
9422;SDS011;65863;49.506;10.400;2023-03-01T10:45:34;17.47;;;12.50;;
9422;SDS011;65863;49.506;10.400;2023-03-01T10:48:21;16.43;;;11.67;;
9422;SDS011;65863;49.506;10.400;2023-03-01T10:51:12;20.07;;;13.30;;
9422;SDS011;65863;49.506;10.400;2023-03-01T10:54:01;16.57;;;12.07;;
9422;SDS011;65863;49.506;10.400;2023-03-01T10:56:51;15.07;;;11.37;;
9422;SDS011;65863;49.506;10.400;2023-03-01T10:59:37;16.37;;;11.47;;
9422;SDS011;65863;49.506;10.400;2023-03-01T11:02:29;15.30;;;11.37;;
9422;SDS011;65863;49.506;10.400;2023-03-01T11:08:03;16.23;;;11.63;;
9422;SDS011;65863;49.506;10.400;2023-03-01T11:10:47;18.13;;;11.93;;
9422;SDS011;65863;49.506;10.400;2023-03-01T11:13:31;15.93;;;11.63;;
9422;SDS011;65863;49.506;10.400;2023-03-01T11:16:14;16.23;;;11.63;;
9422;SDS011;65863;49.506;10.400;2023-03-01T11:21:56;14.30;;;11.20;;
9422;SDS011;65863;49.506;10.400;2023-03-01T11:27:38;15.60;;;11.80;;
9422;SDS011;65863;49.506;10.400;2023-03-01T11:33:43;14.47;;;11.13;;
9422;SDS011;65863;49.506;10.400;2023-03-01T11:36:42;16.37;;;11.40;;
9422;SDS011;65863;49.506;10.400;2023-03-01T11:39:51;13.90;;;11.47;;
9422;SDS011;65863;49.506;10.400;2023-03-01T12:03:30;15.23;;;10.73;;
9422;SDS011;65863;49.506;10.400;2023-03-01T12:09:35;15.63;;;11.70;;
9422;SDS011;65863;49.506;10.400;2023-03-01T12:15:26;14.03;;;10.30;;
9422;SDS011;65863;49.506;10.400;2023-03-01T12:21:18;14.97;;;11.13;;
9422;SDS011;65863;49.506;10.400;2023-03-01T12:33:09;14.90;;;10.40;;
9422;SDS011;65863;49.506;10.400;2023-03-01T12:36:15;14.53;;;10.40;;
9422;SDS011;65863;49.506;10.400;2023-03-01T12:51:07;14.00;;;10.10;;
9422;SDS011;65863;49.506;10.400;2023-03-01T12:53:55;14.70;;;10.30;;
9422;SDS011;65863;49.506;10.400;2023-03-01T12:56:42;18.33;;;9.63;;
9422;SDS011;65863;49.506;10.400;2023-03-01T13:02:33;12.13;;;10.20;;
9422;SDS011;65863;49.506;10.400;2023-03-01T13:11:40;13.47;;;9.93;;
9422;SDS011;65863;49.506;10.400;2023-03-01T13:17:28;12.20;;;9.13;;
9422;SDS011;65863;49.506;10.400;2023-03-01T13:20:16;13.53;;;9.30;;
9422;SDS011;65863;49.506;10.400;2023-03-01T13:28:56;13.57;;;9.37;;
9422;SDS011;65863;49.506;10.400;2023-03-01T13:34:41;14.33;;;8.73;;
9422;SDS011;65863;49.506;10.400;2023-03-01T13:37:28;12.77;;;9.30;;
9422;SDS011;65863;49.506;10.400;2023-03-01T13:46:21;14.03;;;9.70;;
9422;SDS011;65863;49.506;10.400;2023-03-01T13:49:09;13.90;;;9.33;;
9422;SDS011;65863;49.506;10.400;2023-03-01T13:51:58;14.60;;;9.20;;
9422;SDS011;65863;49.506;10.400;2023-03-01T13:54:42;13.43;;;9.70;;
9422;SDS011;65863;49.506;10.400;2023-03-01T13:57:28;16.17;;;9.20;;
9422;SDS011;65863;49.506;10.400;2023-03-01T14:00:29;11.40;;;8.93;;
9422;SDS011;65863;49.506;10.400;2023-03-01T14:06:07;14.43;;;9.70;;
9422;SDS011;65863;49.506;10.400;2023-03-01T14:08:59;15.63;;;10.07;;
9422;SDS011;65863;49.506;10.400;2023-03-01T14:17:58;14.93;;;10.27;;
9422;SDS011;65863;49.506;10.400;2023-03-01T14:20:47;15.70;;;10.27;;
9422;SDS011;65863;49.506;10.400;2023-03-01T14:23:34;14.30;;;10.13;;
9422;SDS011;65863;49.506;10.400;2023-03-01T14:26:23;14.27;;;10.50;;
9422;SDS011;65863;49.506;10.400;2023-03-01T14:29:22;14.27;;;9.50;;
9422;SDS011;65863;49.506;10.400;2023-03-01T14:32:21;15.03;;;9.73;;
9422;SDS011;65863;49.506;10.400;2023-03-01T14:35:19;15.10;;;10.93;;
9422;SDS011;65863;49.506;10.400;2023-03-01T14:38:05;12.37;;;9.17;;
9422;SDS011;65863;49.506;10.400;2023-03-01T14:40:50;16.73;;;9.80;;
9422;SDS011;65863;49.506;10.400;2023-03-01T14:43:40;13.13;;;9.07;;
9422;SDS011;65863;49.506;10.400;2023-03-01T14:46:30;14.23;;;10.30;;
9422;SDS011;65863;49.506;10.400;2023-03-01T14:49:22;15.17;;;10.23;;
9422;SDS011;65863;49.506;10.400;2023-03-01T14:52:21;13.93;;;9.80;;
9422;SDS011;65863;49.506;10.400;2023-03-01T14:55:16;13.63;;;10.43;;
9422;SDS011;65863;49.506;10.400;2023-03-01T14:58:09;16.07;;;10.67;;
9422;SDS011;65863;49.506;10.400;2023-03-01T15:00:59;12.43;;;10.17;;
9422;SDS011;65863;49.506;10.400;2023-03-01T15:03:46;14.13;;;9.83;;
9422;SDS011;65863;49.506;10.400;2023-03-01T15:06:32;13.93;;;10.17;;
9422;SDS011;65863;49.506;10.400;2023-03-01T15:09:15;13.57;;;9.57;;
9422;SDS011;65863;49.506;10.400;2023-03-01T15:12:02;13.50;;;10.57;;
9422;SDS011;65863;49.506;10.400;2023-03-01T15:18:18;11.87;;;10.43;;
9422;SDS011;65863;49.506;10.400;2023-03-01T15:21:05;15.73;;;10.73;;
9422;SDS011;65863;49.506;10.400;2023-03-01T15:23:57;14.47;;;10.27;;
9422;SDS011;65863;49.506;10.400;2023-03-01T15:26:56;17.73;;;10.63;;
9422;SDS011;65863;49.506;10.400;2023-03-01T15:29:52;13.27;;;10.07;;
9422;SDS011;65863;49.506;10.400;2023-03-01T15:32:39;16.40;;;10.87;;
9422;SDS011;65863;49.506;10.400;2023-03-01T15:35:42;11.97;;;9.87;;
9422;SDS011;65863;49.506;10.400;2023-03-01T15:41:22;13.07;;;10.50;;
9422;SDS011;65863;49.506;10.400;2023-03-01T15:44:16;12.57;;;9.80;;
9422;SDS011;65863;49.506;10.400;2023-03-01T15:47:25;14.47;;;9.87;;
9422;SDS011;65863;49.506;10.400;2023-03-01T15:50:16;13.20;;;9.93;;
9422;SDS011;65863;49.506;10.400;2023-03-01T15:53:05;13.80;;;10.57;;
9422;SDS011;65863;49.506;10.400;2023-03-01T15:55:52;15.67;;;11.47;;
9422;SDS011;65863;49.506;10.400;2023-03-01T15:58:36;13.67;;;10.17;;
9422;SDS011;65863;49.506;10.400;2023-03-01T16:01:19;14.27;;;11.30;;
9422;SDS011;65863;49.506;10.400;2023-03-01T16:04:04;14.17;;;10.23;;
9422;SDS011;65863;49.506;10.400;2023-03-01T16:06:52;14.80;;;10.87;;
9422;SDS011;65863;49.506;10.400;2023-03-01T16:09:40;14.53;;;9.83;;
9422;SDS011;65863;49.506;10.400;2023-03-01T16:12:25;17.37;;;10.07;;
9422;SDS011;65863;49.506;10.400;2023-03-01T16:15:16;13.90;;;9.90;;
9422;SDS011;65863;49.506;10.400;2023-03-01T16:18:05;12.70;;;10.20;;
9422;SDS011;65863;49.506;10.400;2023-03-01T16:20:50;12.33;;;9.50;;
9422;SDS011;65863;49.506;10.400;2023-03-01T16:23:34;12.57;;;10.03;;
9422;SDS011;65863;49.506;10.400;2023-03-01T16:26:18;12.90;;;9.87;;
9422;SDS011;65863;49.506;10.400;2023-03-01T16:29:02;14.00;;;9.47;;
9422;SDS011;65863;49.506;10.400;2023-03-01T16:31:46;14.73;;;10.43;;
9422;SDS011;65863;49.506;10.400;2023-03-01T16:34:30;14.33;;;10.13;;
9422;SDS011;65863;49.506;10.400;2023-03-01T16:37:14;14.63;;;10.23;;
9422;SDS011;65863;49.506;10.400;2023-03-01T16:39:59;16.47;;;10.47;;
9422;SDS011;65863;49.506;10.400;2023-03-01T16:42:43;13.37;;;10.17;;
9422;SDS011;65863;49.506;10.400;2023-03-01T16:45:28;12.77;;;9.50;;
9422;SDS011;65863;49.506;10.400;2023-03-01T16:48:18;14.33;;;9.93;;
9422;SDS011;65863;49.506;10.400;2023-03-01T16:51:02;12.60;;;9.73;;
9422;SDS011;65863;49.506;10.400;2023-03-01T16:53:46;20.63;;;10.60;;
9422;SDS011;65863;49.506;10.400;2023-03-01T16:56:31;15.17;;;11.13;;
9422;SDS011;65863;49.506;10.400;2023-03-01T16:59:18;15.57;;;10.77;;
9422;SDS011;65863;49.506;10.400;2023-03-01T17:02:03;14.73;;;9.80;;
9422;SDS011;65863;49.506;10.400;2023-03-01T17:04:53;14.77;;;10.53;;
9422;SDS011;65863;49.506;10.400;2023-03-01T17:07:38;16.60;;;10.80;;
9422;SDS011;65863;49.506;10.400;2023-03-01T17:10:23;17.40;;;11.47;;
9422;SDS011;65863;49.506;10.400;2023-03-01T17:13:08;14.53;;;10.47;;
9422;SDS011;65863;49.506;10.400;2023-03-01T17:15:52;15.77;;;10.67;;
9422;SDS011;65863;49.506;10.400;2023-03-01T17:18:37;12.53;;;9.77;;
9422;SDS011;65863;49.506;10.400;2023-03-01T17:21:21;15.77;;;10.47;;
9422;SDS011;65863;49.506;10.400;2023-03-01T17:24:05;14.85;;;10.10;;
9422;SDS011;65863;49.506;10.400;2023-03-01T17:26:49;14.63;;;10.13;;
9422;SDS011;65863;49.506;10.400;2023-03-01T17:29:34;15.73;;;9.50;;
9422;SDS011;65863;49.506;10.400;2023-03-01T17:32:18;16.20;;;9.97;;
9422;SDS011;65863;49.506;10.400;2023-03-01T17:35:02;13.20;;;9.50;;
9422;SDS011;65863;49.506;10.400;2023-03-01T17:37:46;13.13;;;9.53;;
9422;SDS011;65863;49.506;10.400;2023-03-01T17:40:31;13.13;;;9.43;;
9422;SDS011;65863;49.506;10.400;2023-03-01T17:43:16;13.03;;;9.27;;
9422;SDS011;65863;49.506;10.400;2023-03-01T17:46:00;13.03;;;9.60;;
9422;SDS011;65863;49.506;10.400;2023-03-01T17:48:44;14.87;;;9.73;;
9422;SDS011;65863;49.506;10.400;2023-03-01T17:51:28;14.43;;;10.30;;
9422;SDS011;65863;49.506;10.400;2023-03-01T17:54:12;13.73;;;10.67;;
9422;SDS011;65863;49.506;10.400;2023-03-01T17:56:56;14.43;;;10.53;;
9422;SDS011;65863;49.506;10.400;2023-03-01T17:59:41;12.57;;;9.50;;
9422;SDS011;65863;49.506;10.400;2023-03-01T18:02:25;16.23;;;10.90;;
9422;SDS011;65863;49.506;10.400;2023-03-01T18:05:09;13.17;;;10.10;;
9422;SDS011;65863;49.506;10.400;2023-03-01T18:07:54;17.20;;;10.63;;
9422;SDS011;65863;49.506;10.400;2023-03-01T18:10:38;15.43;;;10.57;;
9422;SDS011;65863;49.506;10.400;2023-03-01T18:13:28;15.63;;;10.13;;
9422;SDS011;65863;49.506;10.400;2023-03-01T18:16:13;15.53;;;10.37;;
9422;SDS011;65863;49.506;10.400;2023-03-01T18:19:00;14.67;;;10.30;;